Todohokke, Japan

9:49 PM JST on February 25, 2017 (GMT +0900)
道道347号線 | | Change Station

Elev 209 ft 41.83 °N, 140.76 °E | Updated 1 minute ago

Partly Cloudy
Partly Cloudy
30.2 °F
Feels Like 30 °F
N
1.9
Wind Variable Wind from NNE
Gusts 4.3 mph

Today
High -- | Low -- °F
--% Chance of Precip.
Yesterday
High -- | Low -- °F
Precip. -- in
Pressure 29.89 in
Visibility 1.0 miles
Clouds Few 600 ft
Scattered Clouds 1000 ft
Mostly Cloudy 1500 ft
Windchill 30 °F
Dew Point 24 °F
Humidity 77%
Rainfall 0.00 in
Snow Depth Not available.
6:17 AM 5:20 PM
Waning Crescent, 1% visible
SPECI RJSO 251229Z 23010KT 190V250 1600 -SHSN FEW006 SCT010 BKN015 00/M01 Q1012 RMK 1ST006 4ST010 7CU015 A2991
Pressure 29.89 in
Visibility 1.0 miles
Clouds Few 600 ft
Scattered Clouds 1000 ft
Mostly Cloudy 1500 ft
Windchill 30 °F
Dew Point 24 °F
Humidity 77%
Rainfall 0.00 in
Snow Depth Not available.
6:17 AM 5:20 PM
Waning Crescent, 1% visible
SPECI RJSO 251229Z 23010KT 190V250 1600 -SHSN FEW006 SCT010 BKN015 00/M01 Q1012 RMK 1ST006 4ST010 7CU015 A2991

Get Your Daily Forecast Email!

Thanks for signing up!

Be on the lookout for a verification email in your inbox.

You'll start receiving the daily forecast at 8 AM.

×

10-Day Weather Forecast

No radar image for this location.
×

Almanac

Astronomy

Feb. 25, 2017 Rise Set
Actual Time
Civil Twilight
Nautical Twilight
Astronomical Twilight
Moon
Length of Visible Light
Length of Day
Tomorrow will be .
, % of the Moon is Illuminated

Today's Extremes

Country Highs Country Lows

Community

WunderPhotos

Upload Photos

1,962,540 photos uploaded!

WunderBlog® & News

Nearby

Air Quality

  Air Quality AQ Index Pollutant
Not available.

Snow Depth

Station Depth Elevation

Earthquake Activity

City Distance Mag. Time & Date
Minimum magnitude displayed is 2.5.

Coastal Water Temperatures

Place Temperature

Stations

Nearby Weather Stations

Station Location Temp. Windchill Dew Point Humidity Wind Precip. Elev Updated Type